Latest Weather Observations for Mortlake

IDV60801

Issued at 11:02 pm EDT Tuesday 6 December 2016 (issued every 30 minutes, with the page automatically refreshed every 10 minutes)

About weather observations | Map of weather stations | Latest weather observations for VIC | Other Formats
Station Details ID: 090176 Name: MORTLAKE RACECOURSE Lat: -38.07 Lon: 142.77 Height: 130.0 m
Data from the previous 72 hours. | See also: Recent months at Mortlake
Date/Time
EDT
Temp
°C
App
Temp
°C
Dew
Point
°C
Rel
Hum
%
Delta-T
°C
Wind Press
QNH
hPa
Press
MSL
hPa
Rain since
9am
mm
Dir  Spd
km/h
Gust
km/h
Spd
kts
Gust
kts
06/11:00pm 6.6 5.2 5.4 92 0.5 SSE 2 2 1 1 1016.2 1016.0 0.0
06/10:30pm 7.3 6.0 5.8 90 0.7 SSE 2 4 1 2 1016.3 1016.1 0.0
06/10:00pm 8.0 6.7 6.0 87 0.9 S 2 4 1 2 1016.2 1016.0 0.0
06/09:30pm 9.2 7.3 6.8 85 1.1 S 6 6 3 3 1016.1 1015.9 0.0
06/09:00pm 10.4 8.0 7.1 80 1.6 S 9 9 5 5 1015.8 1015.6 0.0
06/08:30pm 12.2 9.8 7.1 71 2.5 S 9 13 5 7 1015.8 1015.6 0.0
06/08:00pm 14.3 11.2 7.1 62 3.5 SSW 13 17 7 9 1015.6 1015.4 0.0
06/07:30pm 15.6 12.1 7.1 57 4.2 SSW 15 19 8 10 1015.0 1014.8 0.0
06/07:00pm 16.5 12.7 7.4 55 4.6 SSW 17 24 9 13 1014.8 1014.6 0.0
06/06:30pm 17.4 13.1 5.4 45 5.8 SW 17 24 9 13 1014.8 1014.6 0.0
06/06:00pm 17.9 13.8 7.9 52 5.1 SSW 19 28 10 15 1014.9 1014.7 0.0
06/05:30pm 17.9 13.7 8.2 53 5.0 SSW 20 30 11 16 1014.7 1014.5 0.0
06/05:00pm 18.1 13.5 6.6 47 5.7 SW 20 30 11 16 1014.5 1014.3 0.0
06/04:30pm 18.4 14.8 6.6 46 5.9 SSW 15 26 8 14 1014.4 1014.2 0.0
06/04:00pm 18.7 14.3 6.5 45 6.1 SW 19 33 10 18 1014.4 1014.2 0.0
06/03:30pm 19.1 14.9 8.1 49 5.7 SW 20 28 11 15 1014.4 1014.2 0.0
06/03:00pm 18.6 14.4 7.4 48 5.7 SSW 19 30 10 16 1014.6 1014.4 0.0
06/02:30pm 18.4 14.1 6.9 47 5.8 SSW 19 30 10 16 1014.7 1014.5 0.0
06/02:00pm 19.2 14.8 6.7 44 6.3 SW 19 33 10 18 1014.7 1014.5 0.0
06/01:30pm 17.8 14.1 6.3 47 5.7 SW 15 22 8 12 1014.8 1014.6 0.0
06/01:00pm 17.4 13.3 7.7 53 4.9 WSW 19 30 10 16 1015.0 1014.8 0.0
06/12:30pm 17.2 13.3 7.3 52 5.0 WSW 17 28 9 15 1015.0 1014.8 0.0
06/12:00pm 16.8 13.0 6.0 49 5.3 WSW 15 28 8 15 1015.0 1014.8 0.0
06/11:30am 17.7 15.1 7.7 52 5.1 W 11 24 6 13 1015.1 1014.9 0.0
06/11:00am 16.3 14.5 8.0 58 4.2 WSW 7 13 4 7 1015.2 1015.0 0.0
06/10:30am 15.6 13.6 6.9 56 4.3 WNW 7 15 4 8 1015.2 1015.0 0.0
06/10:00am 13.9 12.0 7.7 66 3.1 W 7 11 4 6 1015.6 1015.4 0.0
06/09:30am 14.1 12.7 8.9 71 2.7 WNW 6 11 3 6 1015.3 1015.1 0.0
06/09:00am 13.1 12.4 9.9 81 1.7 WNW 4 7 2 4 1015.2 1015.0 0.2
06/08:30am 11.5 10.8 11.5 100 0.0 NNE 6 7 3 4 1014.5 1014.3 0.2
06/08:00am 9.7 8.9 9.7 100 0.0 NW 4 6 2 3 1014.9 1014.7 0.2
06/07:30am 9.2 7.9 9.2 100 0.0 WSW 6 7 3 4 1014.7 1014.5 0.2
06/07:00am 8.1 7.3 8.1 100 0.0 SW 2 4 1 2 1013.9 1013.6 0.2
06/06:30am 7.7 7.2 7.7 100 0.0 CALM 0 0 0 0 1014.1 1013.8 0.2
06/06:00am 7.8 7.3 7.8 100 0.0 CALM 0 0 0 0 1013.7 1013.5 0.2
06/05:30am 8.7 7.7 8.7 100 0.0 SW 4 4 2 2 1013.6 1013.4 0.2
06/05:00am 9.0 8.8 9.0 100 0.0 CALM 0 0 0 0 1013.3 1013.1 0.2
06/04:30am 9.1 8.9 9.1 100 0.0 CALM 0 0 0 0 1012.8 1012.6 0.2
06/04:00am 8.9 8.3 8.9 100 0.0 SW 2 4 1 2 1012.7 1012.5 0.2
06/03:30am 8.1 6.5 8.1 100 0.0 SW 6 7 3 4 1013.1 1012.9 0.2
06/03:00am 6.9 6.1 6.6 98 0.1 CALM 0 0 0 0 1012.4 1012.2 0.2
06/02:30am 8.0 7.5 7.9 99 0.0 CALM 0 0 0 0 1012.4 1012.2 0.2
06/02:00am 7.7 6.7 7.3 97 0.2 SE 2 4 1 2 1012.8 1012.6 0.2
06/01:30am 8.4 7.9 8.0 97 0.2 CALM 0 0 0 0 1013.4 1013.2 0.2
06/01:00am 8.4 7.9 8.0 97 0.2 CALM 0 0 0 0 1014.2 1013.9 0.2
06/12:30am 8.0 7.3 7.1 94 0.4 CALM 0 2 0 1 1014.4 1014.2 0.2
06/12:00am 8.4 7.0 7.3 93 0.5 SE 4 4 2 2 1014.7 1014.5 0.2
 
Date/Time
EDT
Temp
°C
App
Temp
°C
Dew
Point
°C
Rel
Hum
%
Delta-T
°C
Wind Press
QNH
hPa
Press
MSL
hPa
Rain since
9am
mm
Dir  Spd
km/h
Gust
km/h
Spd
kts
Gust
kts
05/11:30pm 9.3 7.6 8.2 93 0.5 S 7 9 4 5 1014.3 1014.1 0.2
05/11:00pm 9.6 8.5 8.4 92 0.6 SSE 4 6 2 3 1014.3 1014.1 0.2
05/10:30pm 10.0 8.4 8.6 91 0.7 SE 7 9 4 5 1014.3 1014.1 0.2
05/10:00pm 10.4 8.8 8.7 89 0.8 SE 7 9 4 5 1014.3 1014.1 0.2
05/09:30pm 11.4 10.1 9.3 87 1.1 SSE 6 7 3 4 1014.7 1014.5 0.2
05/09:00pm 11.9 10.0 9.1 83 1.4 S 9 11 5 6 1015.1 1014.9 0.2
05/08:30pm 12.9 11.4 9.0 77 2.0 S 7 15 4 8 1015.0 1014.8 0.2
05/08:00pm 14.1 11.4 9.1 72 2.6 S 13 19 7 10 1014.1 1013.8 0.2
05/07:30pm 13.8 11.1 8.8 72 2.5 S 13 19 7 10 1013.9 1013.6 0.2
05/07:00pm 14.7 12.0 9.1 69 2.9 SSW 13 19 7 10 1013.7 1013.5 0.2
05/06:30pm 15.6 12.3 9.5 67 3.2 SSW 17 20 9 11 1013.6 1013.4 0.2
05/06:00pm 16.4 13.4 9.3 63 3.7 SW 15 22 8 12 1014.0 1013.7 0.2
05/05:30pm 17.2 13.9 9.4 60 4.1 S 17 22 9 12 1013.4 1013.2 0.2
05/05:00pm 17.2 13.9 9.6 61 4.0 SSW 17 24 9 13 1012.9 1012.7 0.2
05/04:30pm 17.4 14.0 10.5 64 3.7 SSW 19 28 10 15 1012.9 1012.7 0.2
05/04:00pm 17.5 14.1 10.4 63 3.8 SSW 19 28 10 15 1013.4 1013.2 0.2
05/03:30pm 17.9 14.1 9.0 56 4.7 SW 19 26 10 14 1013.2 1013.0 0.2
05/03:00pm 19.3 15.8 10.8 58 4.6 SW 20 33 11 18 1013.2 1013.0 0.2
05/02:30pm 18.7 15.1 11.8 64 3.8 SSW 22 33 12 18 1012.8 1012.6 0.2
05/02:00pm 18.5 15.0 10.1 58 4.5 SSW 19 30 10 16 1012.7 1012.5 0.2
05/01:30pm 18.3 14.5 9.9 58 4.5 SW 20 32 11 17 1013.0 1012.8 0.2
05/01:00pm 18.9 15.1 9.9 56 4.8 SW 20 33 11 18 1013.2 1013.0 0.2
05/12:30pm 19.0 15.6 10.6 58 4.6 SW 19 30 10 16 1012.9 1012.7 0.2
05/12:00pm 17.8 13.9 9.4 58 4.4 SW 20 30 11 16 1013.2 1013.0 0.0
05/11:30am 17.6 14.3 9.5 59 4.3 WSW 17 28 9 15 1013.3 1013.1 0.0
05/11:00am 16.4 12.9 8.6 60 4.0 SW 17 26 9 14 1013.2 1013.0 0.0
05/10:30am 17.0 13.7 9.7 62 3.9 WSW 17 24 9 13 1013.1 1012.9 0.0
05/10:00am 16.4 12.8 10.0 66 3.4 SW 19 26 10 14 1012.9 1012.7 0.0
05/09:30am 15.8 12.0 9.2 65 3.4 WSW 19 28 10 15 1012.6 1012.4 0.0
05/09:00am 14.7 10.8 8.6 67 3.1 WSW 19 26 10 14 1012.4 1012.2 0.8
05/08:30am 14.1 10.4 9.5 74 2.4 WSW 19 30 10 16 1012.0 1011.8 0.8
05/08:00am 13.7 11.1 10.7 82 1.6 W 15 20 8 11 1011.5 1011.3 0.8
05/07:30am 12.9 11.0 10.4 85 1.3 W 11 20 6 11 1010.8 1010.6 0.8
05/07:00am 12.8 11.0 10.9 88 1.0 WNW 11 15 6 8 1010.4 1010.2 0.8
05/06:30am 12.5 10.6 10.4 87 1.1 W 11 15 6 8 1010.0 1009.8 0.8
05/06:00am 12.7 11.0 11.1 90 0.8 W 11 15 6 8 1009.7 1009.5 0.8
05/05:30am 12.3 10.9 10.9 91 0.7 WSW 9 17 5 9 1009.3 1009.1 0.8
05/05:00am 12.8 9.5 10.9 88 1.0 WSW 19 28 10 15 1008.8 1008.6 0.8
05/04:30am 13.4 10.7 11.8 90 0.9 WSW 17 24 9 13 1008.2 1008.0 0.8
05/04:00am 14.4 13.0 14.4 100 0.0 WSW 15 28 8 15 1007.5 1007.2 0.8
05/03:30am 14.6 12.5 14.6 100 0.0 SW 19 24 10 13 1007.2 1006.9 0.8
05/03:00am 14.7 11.6 14.5 99 0.1 WSW 24 37 13 20 1006.8 1006.5 0.8
05/02:30am 16.3 13.7 15.8 97 0.3 WSW 24 32 13 17 1006.3 1006.0 0.6
05/02:22am 16.4 13.6 15.4 94 0.6 WSW 24 43 13 23 1006.2 1005.9 0.6
05/02:00am 21.4 18.7 16.6 74 2.9 WNW 26 37 14 20 1005.2 1005.0 0.6
05/01:30am 22.0 18.4 16.3 70 3.5 NW 30 44 16 24 1004.5 1004.3 0.6
05/01:00am 21.1 19.3 16.1 73 3.0 NW 20 32 11 17 1004.3 1004.1 0.6
05/12:30am 20.5 17.8 15.7 74 2.9 N 24 33 13 18 1003.7 1003.5 0.6
05/12:00am 20.7 18.4 15.7 73 3.0 N 22 32 12 17 1003.6 1003.4 0.6
 
Date/Time
EDT
Temp
°C
App
Temp
°C
Dew
Point
°C
Rel
Hum
%
Delta-T
°C
Wind Press
QNH
hPa
Press
MSL
hPa
Rain since
9am
mm
Dir  Spd
km/h
Gust
km/h
Spd
kts
Gust
kts
04/11:30pm 20.1 17.9 15.9 77 2.5 N 22 32 12 17 1003.4 1003.2 0.6
04/11:00pm 19.7 17.1 16.0 79 2.2 N 24 35 13 19 1003.2 1003.0 0.6
04/10:30pm 19.4 16.4 15.9 80 2.1 N 26 35 14 19 1003.3 1003.1 0.6
04/10:00pm 19.1 16.9 16.0 82 1.9 N 22 30 12 16 1003.3 1003.1 0.6
04/09:30pm 19.2 16.7 16.1 82 1.9 N 24 37 13 20 1003.1 1002.9 0.6
04/09:00pm 19.4 16.3 16.6 84 1.7 N 28 39 15 21 1003.3 1003.1 0.6
04/08:30pm 19.5 16.3 16.3 82 1.9 N 28 39 15 21 1003.6 1003.4 0.6
04/08:00pm 19.9 17.9 16.5 81 2.1 N 22 32 12 17 1003.6 1003.4 0.6
04/07:30pm 20.3 19.1 17.1 82 2.0 N 19 26 10 14 1004.2 1004.0 0.6
04/07:00pm 20.1 19.2 17.7 86 1.5 N 19 28 10 15 1004.9 1004.7 0.6
04/06:30pm 21.5 19.6 15.8 70 3.4 NNW 20 28 11 15 1005.4 1005.2 0.0
04/06:00pm 22.4 20.1 15.7 66 4.1 NNW 22 32 12 17 1005.1 1004.9 0.0
04/05:30pm 22.4 20.0 15.3 64 4.3 NW 22 30 12 16 1005.7 1005.5 0.0
04/05:00pm 23.5 18.7 13.9 55 5.7 NW 32 54 17 29 1006.1 1005.8 0.0
04/04:55pm 24.1 20.1 14.2 54 5.9 NW 28 54 15 29 1006.2 1005.9 0.0
04/04:30pm 24.3 19.1 14.4 54 5.9 NW 35 48 19 26 1006.1 1005.8 0.0
04/04:00pm 27.2 20.8 13.2 42 8.3 NW 39 63 21 34 1005.9 1005.6 0.0
04/03:54pm 28.1 24.0 12.8 38 9.0 NW 26 63 14 34 1005.5 1005.3 0.0
04/03:30pm 28.7 26.2 14.1 40 8.8 NNW 20 32 11 17 1005.1 1004.9 0.0
04/03:00pm 29.0 28.9 15.9 45 8.2 NW 11 17 6 9 1005.4 1005.2 0.0
04/02:30pm 27.8 26.1 13.7 42 8.4 NW 15 22 8 12 1005.9 1005.6 0.0
04/02:00pm 28.4 26.2 14.3 42 8.5 NNW 19 28 10 15 1006.4 1006.1 0.0
04/01:30pm 28.2 26.0 12.1 37 9.4 N 15 22 8 12 1006.3 1006.0 0.0
04/01:00pm 27.9 25.7 13.4 40 8.6 N 17 24 9 13 1006.4 1006.1 0.0
04/12:30pm 28.1 25.3 12.5 38 9.2 N 19 26 10 14 1006.6 1006.3 0.0
04/12:00pm 27.4 25.2 12.2 39 8.9 NNW 15 22 8 12 1007.0 1006.7 0.0
04/11:30am 27.5 23.9 10.7 35 9.5 N 20 28 11 15 1007.4 1007.1 0.0
04/11:00am 28.2 24.4 9.9 32 10.3 N 20 30 11 16 1007.6 1007.3 0.0
04/10:30am 25.9 24.1 10.9 39 8.5 N 11 19 6 10 1008.4 1008.2 0.0
04/10:00am 23.9 22.7 12.8 49 6.4 NNE 11 15 6 8 1008.6 1008.4 0.0
04/09:30am 21.8 19.1 11.8 53 5.6 NNE 17 22 9 12 1008.6 1008.4 0.0
04/09:00am 18.7 18.4 13.3 71 3.1 ENE 7 11 4 6 1009.0 1008.8 0.0
04/08:30am 16.5 15.1 12.1 75 2.4 ENE 11 15 6 8 1009.2 1009.0 0.0
04/08:00am 14.1 12.6 11.8 86 1.2 ENE 11 15 6 8 1009.4 1009.2 0.0
04/07:30am 12.3 10.7 11.4 94 0.5 ENE 11 15 6 8 1009.6 1009.4 0.0
04/07:00am 11.4 9.3 11.1 98 0.2 ENE 13 19 7 10 1009.5 1009.3 0.0
04/06:30am 11.0 9.2 10.7 98 0.2 E 11 17 6 9 1009.9 1009.7 0.0
04/06:00am 11.0 8.4 10.7 98 0.2 ENE 15 20 8 11 1009.6 1009.4 0.0
04/05:30am 10.9 8.7 10.7 99 0.1 ENE 13 19 7 10 1009.6 1009.4 0.0
04/05:00am 11.1 8.6 10.9 99 0.1 ENE 15 22 8 12 1009.7 1009.5 0.0
04/04:30am 10.9 8.7 10.7 99 0.1 ENE 13 20 7 11 1010.0 1009.8 0.0
04/04:00am 11.3 8.9 11.3 100 0.0 ENE 15 24 8 13 1010.3 1010.1 0.0
04/03:30am 10.9 8.4 10.9 100 0.0 NE 15 22 8 12 1010.4 1010.2 0.0
04/03:00am 11.0 8.8 10.8 99 0.1 ENE 13 19 7 10 1010.1 1009.9 0.0
04/02:30am 10.9 8.3 10.7 99 0.1 E 15 32 8 17 1010.4 1010.2 0.0
04/02:00am 10.9 7.9 10.6 98 0.2 ENE 17 26 9 14 1010.9 1010.7 0.0
04/01:30am 10.9 8.9 10.0 94 0.5 ENE 11 19 6 10 1011.6 1011.4 0.0
04/01:00am 11.5 8.4 10.2 92 0.7 E 17 28 9 15 1011.7 1011.5 0.0
04/12:30am 11.5 8.7 9.9 90 0.8 E 15 24 8 13 1012.1 1011.9 0.0
04/12:00am 11.7 8.8 9.6 87 1.1 E 15 26 8 14 1012.4 1012.2 0.0
 
Date/Time
EDT
Temp
°C
App
Temp
°C
Dew
Point
°C
Rel
Hum
%
Delta-T
°C
Wind Press
QNH
hPa
Press
MSL
hPa
Rain since
9am
mm
Dir  Spd
km/h
Gust
km/h
Spd
kts
Gust
kts
03/11:30pm 11.9 10.1 9.5 85 1.2 E 9 15 5 8 1012.8 1012.6 0.0

Other Formats:

Comma delimited format used in spreadsheet applications
http://www.bom.gov.au/fwo/IDV60801/IDV60801.94840.axf

JavaScript Object Notation format (JSON) in row-major order
http://www.bom.gov.au/fwo/IDV60801/IDV60801.94840.json